sensor_id;sensor_type;location;lat;lon;timestamp;temperature;humidity
13697;DHT22;6920;50.080;8.226;2023-04-24T00:01:09;11.60;99.90
13697;DHT22;6920;50.080;8.226;2023-04-24T00:03:38;11.60;99.90
13697;DHT22;6920;50.080;8.226;2023-04-24T00:06:06;11.70;99.90
13697;DHT22;6920;50.080;8.226;2023-04-24T00:08:34;11.70;99.90
13697;DHT22;6920;50.080;8.226;2023-04-24T00:11:03;11.60;99.90
13697;DHT22;6920;50.080;8.226;2023-04-24T00:13:30;11.70;99.90
13697;DHT22;6920;50.080;8.226;2023-04-24T00:15:57;11.60;99.90
13697;DHT22;6920;50.080;8.226;2023-04-24T00:18:24;11.60;99.90
13697;DHT22;6920;50.080;8.226;2023-04-24T00:20:51;11.70;99.90
13697;DHT22;6920;50.080;8.226;2023-04-24T00:23:19;11.60;99.90
13697;DHT22;6920;50.080;8.226;2023-04-24T00:28:14;11.70;99.90
13697;DHT22;6920;50.080;8.226;2023-04-24T00:30:42;11.80;99.90
13697;DHT22;6920;50.080;8.226;2023-04-24T00:33:09;11.70;99.90
13697;DHT22;6920;50.080;8.226;2023-04-24T00:35:36;11.70;99.90
13697;DHT22;6920;50.080;8.226;2023-04-24T00:38:03;11.70;99.90
13697;DHT22;6920;50.080;8.226;2023-04-24T00:40:30;11.70;99.90
13697;DHT22;6920;50.080;8.226;2023-04-24T00:42:57;11.70;99.90
13697;DHT22;6920;50.080;8.226;2023-04-24T00:45:26;11.60;99.90
13697;DHT22;6920;50.080;8.226;2023-04-24T00:47:53;11.60;99.90
13697;DHT22;6920;50.080;8.226;2023-04-24T00:50:21;11.70;99.90
13697;DHT22;6920;50.080;8.226;2023-04-24T00:52:48;11.70;99.90
13697;DHT22;6920;50.080;8.226;2023-04-24T00:55:16;11.70;99.90
13697;DHT22;6920;50.080;8.226;2023-04-24T00:57:44;11.80;99.90
13697;DHT22;6920;50.080;8.226;2023-04-24T01:00:12;11.80;99.90
13697;DHT22;6920;50.080;8.226;2023-04-24T01:02:43;11.80;99.90
13697;DHT22;6920;50.080;8.226;2023-04-24T01:05:11;11.80;99.90
13697;DHT22;6920;50.080;8.226;2023-04-24T01:07:39;11.80;99.90
13697;DHT22;6920;50.080;8.226;2023-04-24T01:10:10;11.80;99.90
13697;DHT22;6920;50.080;8.226;2023-04-24T01:12:38;11.80;99.90
13697;DHT22;6920;50.080;8.226;2023-04-24T01:15:08;11.80;99.90
13697;DHT22;6920;50.080;8.226;2023-04-24T01:17:35;11.80;99.90
13697;DHT22;6920;50.080;8.226;2023-04-24T01:20:06;11.80;99.90
13697;DHT22;6920;50.080;8.226;2023-04-24T01:22:35;11.80;99.90
13697;DHT22;6920;50.080;8.226;2023-04-24T01:25:03;11.80;99.90
13697;DHT22;6920;50.080;8.226;2023-04-24T01:27:30;11.70;99.90
13697;DHT22;6920;50.080;8.226;2023-04-24T01:29:58;11.60;99.90
13697;DHT22;6920;50.080;8.226;2023-04-24T01:34:53;11.60;99.90
13697;DHT22;6920;50.080;8.226;2023-04-24T01:37:21;11.70;99.90
13697;DHT22;6920;50.080;8.226;2023-04-24T01:39:49;11.60;99.90
13697;DHT22;6920;50.080;8.226;2023-04-24T01:42:16;11.60;99.90
13697;DHT22;6920;50.080;8.226;2023-04-24T01:44:44;11.70;99.90
13697;DHT22;6920;50.080;8.226;2023-04-24T01:47:11;11.70;99.90
13697;DHT22;6920;50.080;8.226;2023-04-24T01:49:39;11.80;99.90
13697;DHT22;6920;50.080;8.226;2023-04-24T01:52:06;11.80;99.90
13697;DHT22;6920;50.080;8.226;2023-04-24T01:54:33;11.80;99.90
13697;DHT22;6920;50.080;8.226;2023-04-24T01:57:01;11.70;99.90
13697;DHT22;6920;50.080;8.226;2023-04-24T01:59:30;11.60;99.90
13697;DHT22;6920;50.080;8.226;2023-04-24T02:01:58;11.50;99.90
13697;DHT22;6920;50.080;8.226;2023-04-24T02:04:25;11.50;99.90
13697;DHT22;6920;50.080;8.226;2023-04-24T02:06:52;11.40;99.90
13697;DHT22;6920;50.080;8.226;2023-04-24T02:09:20;11.40;99.90
13697;DHT22;6920;50.080;8.226;2023-04-24T02:11:48;11.40;99.90
13697;DHT22;6920;50.080;8.226;2023-04-24T02:14:17;11.40;99.90
13697;DHT22;6920;50.080;8.226;2023-04-24T02:16:44;11.40;99.90
13697;DHT22;6920;50.080;8.226;2023-04-24T02:19:11;11.50;99.90
13697;DHT22;6920;50.080;8.226;2023-04-24T02:21:38;11.40;99.90
13697;DHT22;6920;50.080;8.226;2023-04-24T02:24:05;11.50;99.90
13697;DHT22;6920;50.080;8.226;2023-04-24T02:26:32;11.50;99.90
13697;DHT22;6920;50.080;8.226;2023-04-24T02:29:00;11.60;99.90
13697;DHT22;6920;50.080;8.226;2023-04-24T02:31:28;11.50;99.90
13697;DHT22;6920;50.080;8.226;2023-04-24T02:33:55;11.50;99.90
13697;DHT22;6920;50.080;8.226;2023-04-24T02:36:22;11.50;99.90
13697;DHT22;6920;50.080;8.226;2023-04-24T02:38:49;11.50;99.90
13697;DHT22;6920;50.080;8.226;2023-04-24T02:41:17;11.50;99.90
13697;DHT22;6920;50.080;8.226;2023-04-24T02:43:44;11.40;99.90
13697;DHT22;6920;50.080;8.226;2023-04-24T02:46:11;11.50;99.90
13697;DHT22;6920;50.080;8.226;2023-04-24T02:48:42;11.50;99.90
13697;DHT22;6920;50.080;8.226;2023-04-24T02:51:09;11.50;99.90
13697;DHT22;6920;50.080;8.226;2023-04-24T02:56:03;11.60;99.90
13697;DHT22;6920;50.080;8.226;2023-04-24T02:58:31;11.50;99.90
13697;DHT22;6920;50.080;8.226;2023-04-24T03:00:58;11.50;99.90
13697;DHT22;6920;50.080;8.226;2023-04-24T03:03:25;11.50;99.90
13697;DHT22;6920;50.080;8.226;2023-04-24T03:05:54;11.40;99.90
13697;DHT22;6920;50.080;8.226;2023-04-24T03:10:49;11.50;99.90
13697;DHT22;6920;50.080;8.226;2023-04-24T03:13:17;11.50;99.90
13697;DHT22;6920;50.080;8.226;2023-04-24T03:15:44;11.40;99.90
13697;DHT22;6920;50.080;8.226;2023-04-24T03:18:13;11.40;99.90
13697;DHT22;6920;50.080;8.226;2023-04-24T03:20:40;11.40;99.90
13697;DHT22;6920;50.080;8.226;2023-04-24T03:23:09;11.30;99.90
13697;DHT22;6920;50.080;8.226;2023-04-24T03:25:36;11.40;99.90
13697;DHT22;6920;50.080;8.226;2023-04-24T03:28:03;11.30;99.90
13697;DHT22;6920;50.080;8.226;2023-04-24T03:30:30;11.30;99.90
13697;DHT22;6920;50.080;8.226;2023-04-24T03:37:52;11.10;99.90
13697;DHT22;6920;50.080;8.226;2023-04-24T03:40:20;11.10;99.90
13697;DHT22;6920;50.080;8.226;2023-04-24T03:42:47;11.00;99.90
13697;DHT22;6920;50.080;8.226;2023-04-24T03:45:15;11.00;99.90
13697;DHT22;6920;50.080;8.226;2023-04-24T03:47:42;10.90;99.90
13697;DHT22;6920;50.080;8.226;2023-04-24T03:50:09;10.80;99.90
13697;DHT22;6920;50.080;8.226;2023-04-24T03:52:36;10.80;99.90
13697;DHT22;6920;50.080;8.226;2023-04-24T03:55:04;10.70;99.90
13697;DHT22;6920;50.080;8.226;2023-04-24T03:57:34;10.60;99.90
13697;DHT22;6920;50.080;8.226;2023-04-24T04:00:02;10.60;99.90
13697;DHT22;6920;50.080;8.226;2023-04-24T04:02:30;10.60;99.90
13697;DHT22;6920;50.080;8.226;2023-04-24T04:04:57;10.50;99.90
13697;DHT22;6920;50.080;8.226;2023-04-24T04:09:51;10.40;99.90
13697;DHT22;6920;50.080;8.226;2023-04-24T04:12:18;10.40;99.90
13697;DHT22;6920;50.080;8.226;2023-04-24T04:14:47;10.30;99.90
13697;DHT22;6920;50.080;8.226;2023-04-24T04:17:14;10.30;99.90
13697;DHT22;6920;50.080;8.226;2023-04-24T04:24:36;10.30;99.90
13697;DHT22;6920;50.080;8.226;2023-04-24T04:27:03;10.20;99.90
13697;DHT22;6920;50.080;8.226;2023-04-24T04:29:31;10.30;99.90
13697;DHT22;6920;50.080;8.226;2023-04-24T04:31:59;10.20;99.90
13697;DHT22;6920;50.080;8.226;2023-04-24T04:34:27;10.20;99.90
13697;DHT22;6920;50.080;8.226;2023-04-24T04:36:55;10.10;99.90
13697;DHT22;6920;50.080;8.226;2023-04-24T04:41:53;10.10;99.90
13697;DHT22;6920;50.080;8.226;2023-04-24T04:44:26;10.10;99.90
13697;DHT22;6920;50.080;8.226;2023-04-24T04:49:23;10.00;99.90
13697;DHT22;6920;50.080;8.226;2023-04-24T04:51:50;10.10;99.90
13697;DHT22;6920;50.080;8.226;2023-04-24T04:54:18;10.10;99.90
13697;DHT22;6920;50.080;8.226;2023-04-24T04:56:45;10.00;99.90
13697;DHT22;6920;50.080;8.226;2023-04-24T04:59:12;10.00;99.90
13697;DHT22;6920;50.080;8.226;2023-04-24T05:01:40;10.00;99.90
13697;DHT22;6920;50.080;8.226;2023-04-24T05:04:07;10.00;99.90
13697;DHT22;6920;50.080;8.226;2023-04-24T05:06:35;10.00;99.90
13697;DHT22;6920;50.080;8.226;2023-04-24T05:09:02;9.90;99.90
13697;DHT22;6920;50.080;8.226;2023-04-24T05:11:31;9.90;99.90
13697;DHT22;6920;50.080;8.226;2023-04-24T05:13:58;9.80;99.90
13697;DHT22;6920;50.080;8.226;2023-04-24T05:16:29;9.70;99.90
13697;DHT22;6920;50.080;8.226;2023-04-24T05:19:00;9.70;99.90
13697;DHT22;6920;50.080;8.226;2023-04-24T05:21:28;9.60;99.90
13697;DHT22;6920;50.080;8.226;2023-04-24T05:23:59;9.60;99.90
13697;DHT22;6920;50.080;8.226;2023-04-24T05:26:29;9.50;99.90
13697;DHT22;6920;50.080;8.226;2023-04-24T05:28:58;9.60;99.90
13697;DHT22;6920;50.080;8.226;2023-04-24T05:31:25;9.60;99.90
13697;DHT22;6920;50.080;8.226;2023-04-24T05:33:54;9.50;99.90
13697;DHT22;6920;50.080;8.226;2023-04-24T05:36:21;9.50;99.90
13697;DHT22;6920;50.080;8.226;2023-04-24T05:38:48;9.50;99.90
13697;DHT22;6920;50.080;8.226;2023-04-24T05:41:18;9.50;99.90
13697;DHT22;6920;50.080;8.226;2023-04-24T05:46:13;9.60;99.90
13697;DHT22;6920;50.080;8.226;2023-04-24T05:48:40;9.70;99.90
13697;DHT22;6920;50.080;8.226;2023-04-24T05:51:08;9.70;99.90
13697;DHT22;6920;50.080;8.226;2023-04-24T05:53:35;9.90;99.90
13697;DHT22;6920;50.080;8.226;2023-04-24T05:56:03;9.90;99.90
13697;DHT22;6920;50.080;8.226;2023-04-24T05:58:32;10.00;99.90
13697;DHT22;6920;50.080;8.226;2023-04-24T06:03:27;10.00;99.90
13697;DHT22;6920;50.080;8.226;2023-04-24T06:05:55;10.00;99.90
13697;DHT22;6920;50.080;8.226;2023-04-24T06:08:28;10.00;99.90
13697;DHT22;6920;50.080;8.226;2023-04-24T06:10:55;10.10;99.90
13697;DHT22;6920;50.080;8.226;2023-04-24T06:13:27;10.10;99.90
13697;DHT22;6920;50.080;8.226;2023-04-24T06:15:58;10.20;99.90
13697;DHT22;6920;50.080;8.226;2023-04-24T06:23:24;10.50;99.90
13697;DHT22;6920;50.080;8.226;2023-04-24T06:25:56;10.60;99.90
13697;DHT22;6920;50.080;8.226;2023-04-24T06:28:25;10.70;99.90
13697;DHT22;6920;50.080;8.226;2023-04-24T06:31:03;10.70;99.90
13697;DHT22;6920;50.080;8.226;2023-04-24T06:33:30;10.70;99.90
13697;DHT22;6920;50.080;8.226;2023-04-24T06:35:57;10.70;99.90
13697;DHT22;6920;50.080;8.226;2023-04-24T06:38:24;10.50;99.90
13697;DHT22;6920;50.080;8.226;2023-04-24T06:40:51;10.60;99.90
13697;DHT22;6920;50.080;8.226;2023-04-24T06:43:18;10.70;99.90
13697;DHT22;6920;50.080;8.226;2023-04-24T06:45:46;10.80;99.90
13697;DHT22;6920;50.080;8.226;2023-04-24T06:48:15;10.70;99.90
13697;DHT22;6920;50.080;8.226;2023-04-24T06:50:45;10.80;99.90
13697;DHT22;6920;50.080;8.226;2023-04-24T06:53:13;10.80;99.90
13697;DHT22;6920;50.080;8.226;2023-04-24T06:55:42;10.70;99.90
13697;DHT22;6920;50.080;8.226;2023-04-24T06:58:29;10.90;99.90
13697;DHT22;6920;50.080;8.226;2023-04-24T07:01:06;11.20;99.90
13697;DHT22;6920;50.080;8.226;2023-04-24T07:03:37;11.20;99.90
13697;DHT22;6920;50.080;8.226;2023-04-24T07:06:06;11.30;99.90
13697;DHT22;6920;50.080;8.226;2023-04-24T07:08:33;11.30;99.90
13697;DHT22;6920;50.080;8.226;2023-04-24T07:11:01;11.30;99.90
13697;DHT22;6920;50.080;8.226;2023-04-24T07:13:31;11.40;99.90
13697;DHT22;6920;50.080;8.226;2023-04-24T07:16:09;11.40;99.90
13697;DHT22;6920;50.080;8.226;2023-04-24T07:18:40;11.80;99.90
13697;DHT22;6920;50.080;8.226;2023-04-24T07:21:08;11.80;99.90
13697;DHT22;6920;50.080;8.226;2023-04-24T07:23:37;11.90;99.90
13697;DHT22;6920;50.080;8.226;2023-04-24T07:26:06;12.00;99.90
13697;DHT22;6920;50.080;8.226;2023-04-24T07:28:34;12.20;99.90
13697;DHT22;6920;50.080;8.226;2023-04-24T07:31:01;11.90;99.90
13697;DHT22;6920;50.080;8.226;2023-04-24T07:33:29;11.70;99.90
13697;DHT22;6920;50.080;8.226;2023-04-24T07:36:01;11.70;99.90
13697;DHT22;6920;50.080;8.226;2023-04-24T07:38:30;11.60;99.90
13697;DHT22;6920;50.080;8.226;2023-04-24T07:40:58;11.70;99.90
13697;DHT22;6920;50.080;8.226;2023-04-24T07:43:28;11.70;99.90
13697;DHT22;6920;50.080;8.226;2023-04-24T07:45:55;11.80;99.90
13697;DHT22;6920;50.080;8.226;2023-04-24T07:48:23;11.90;99.90
13697;DHT22;6920;50.080;8.226;2023-04-24T07:50:53;12.00;99.90
13697;DHT22;6920;50.080;8.226;2023-04-24T07:53:21;11.90;99.90
13697;DHT22;6920;50.080;8.226;2023-04-24T07:55:48;12.20;99.90
13697;DHT22;6920;50.080;8.226;2023-04-24T07:58:15;12.60;99.90
13697;DHT22;6920;50.080;8.226;2023-04-24T08:00:42;12.80;99.90
13697;DHT22;6920;50.080;8.226;2023-04-24T08:03:09;12.50;99.90
13697;DHT22;6920;50.080;8.226;2023-04-24T08:05:38;12.40;99.90
13697;DHT22;6920;50.080;8.226;2023-04-24T08:08:05;12.30;99.90
13697;DHT22;6920;50.080;8.226;2023-04-24T08:10:34;12.30;99.90
13697;DHT22;6920;50.080;8.226;2023-04-24T08:15:28;12.10;99.90
13697;DHT22;6920;50.080;8.226;2023-04-24T08:20:23;11.90;99.90
13697;DHT22;6920;50.080;8.226;2023-04-24T08:22:50;11.90;99.90
13697;DHT22;6920;50.080;8.226;2023-04-24T08:25:17;11.90;99.90
13697;DHT22;6920;50.080;8.226;2023-04-24T08:27:46;11.90;99.90
13697;DHT22;6920;50.080;8.226;2023-04-24T08:30:16;11.80;99.90
13697;DHT22;6920;50.080;8.226;2023-04-24T08:32:43;11.80;99.90
13697;DHT22;6920;50.080;8.226;2023-04-24T08:35:10;11.70;99.90
13697;DHT22;6920;50.080;8.226;2023-04-24T08:37:39;11.80;99.90
13697;DHT22;6920;50.080;8.226;2023-04-24T08:40:12;11.80;99.90
13697;DHT22;6920;50.080;8.226;2023-04-24T08:42:41;11.70;99.90
13697;DHT22;6920;50.080;8.226;2023-04-24T08:45:12;11.70;99.90
13697;DHT22;6920;50.080;8.226;2023-04-24T08:47:40;11.70;99.90
13697;DHT22;6920;50.080;8.226;2023-04-24T08:50:08;11.60;99.90
13697;DHT22;6920;50.080;8.226;2023-04-24T08:52:36;11.60;99.90
13697;DHT22;6920;50.080;8.226;2023-04-24T08:55:03;11.60;99.90
13697;DHT22;6920;50.080;8.226;2023-04-24T08:57:31;11.70;99.90
13697;DHT22;6920;50.080;8.226;2023-04-24T08:59:59;11.80;99.90
13697;DHT22;6920;50.080;8.226;2023-04-24T09:02:28;11.80;99.90
13697;DHT22;6920;50.080;8.226;2023-04-24T09:04:57;11.90;99.90
13697;DHT22;6920;50.080;8.226;2023-04-24T09:07:27;11.80;99.90
13697;DHT22;6920;50.080;8.226;2023-04-24T09:09:57;11.60;99.90
13697;DHT22;6920;50.080;8.226;2023-04-24T09:12:26;11.70;99.90
13697;DHT22;6920;50.080;8.226;2023-04-24T09:14:53;11.80;99.90
13697;DHT22;6920;50.080;8.226;2023-04-24T09:17:21;11.90;99.90
13697;DHT22;6920;50.080;8.226;2023-04-24T09:19:50;11.80;99.90
13697;DHT22;6920;50.080;8.226;2023-04-24T09:22:18;11.80;99.90
13697;DHT22;6920;50.080;8.226;2023-04-24T09:24:45;11.90;99.90
13697;DHT22;6920;50.080;8.226;2023-04-24T09:27:12;11.90;99.90
13697;DHT22;6920;50.080;8.226;2023-04-24T09:29:53;11.90;99.90
13697;DHT22;6920;50.080;8.226;2023-04-24T09:32:22;11.90;99.90
13697;DHT22;6920;50.080;8.226;2023-04-24T09:35:06;11.90;99.90
13697;DHT22;6920;50.080;8.226;2023-04-24T09:37:36;11.90;99.90
13697;DHT22;6920;50.080;8.226;2023-04-24T09:40:14;11.90;99.90
13697;DHT22;6920;50.080;8.226;2023-04-24T09:42:43;11.80;99.90
13697;DHT22;6920;50.080;8.226;2023-04-24T09:45:11;11.90;99.90
13697;DHT22;6920;50.080;8.226;2023-04-24T09:47:38;11.90;99.90
13697;DHT22;6920;50.080;8.226;2023-04-24T09:50:16;11.80;99.90
13697;DHT22;6920;50.080;8.226;2023-04-24T09:52:44;11.70;99.90
13697;DHT22;6920;50.080;8.226;2023-04-24T09:55:16;11.60;99.90
13697;DHT22;6920;50.080;8.226;2023-04-24T09:57:48;11.70;99.90
13697;DHT22;6920;50.080;8.226;2023-04-24T10:00:18;11.60;99.90
13697;DHT22;6920;50.080;8.226;2023-04-24T10:02:50;11.50;99.90
13697;DHT22;6920;50.080;8.226;2023-04-24T10:05:23;11.50;99.90
13697;DHT22;6920;50.080;8.226;2023-04-24T10:10:18;11.40;99.90
13697;DHT22;6920;50.080;8.226;2023-04-24T10:12:46;11.40;99.90
13697;DHT22;6920;50.080;8.226;2023-04-24T10:15:13;11.40;99.90
13697;DHT22;6920;50.080;8.226;2023-04-24T10:17:45;11.30;99.90
13697;DHT22;6920;50.080;8.226;2023-04-24T10:20:23;11.40;99.90
13697;DHT22;6920;50.080;8.226;2023-04-24T10:22:52;11.40;99.90
13697;DHT22;6920;50.080;8.226;2023-04-24T10:25:23;11.50;99.90
13697;DHT22;6920;50.080;8.226;2023-04-24T10:27:53;11.80;99.90
13697;DHT22;6920;50.080;8.226;2023-04-24T10:30:30;12.20;99.90
13697;DHT22;6920;50.080;8.226;2023-04-24T10:33:01;12.90;99.90
13697;DHT22;6920;50.080;8.226;2023-04-24T10:35:33;13.20;99.90
13697;DHT22;6920;50.080;8.226;2023-04-24T10:38:08;13.20;99.90
13697;DHT22;6920;50.080;8.226;2023-04-24T10:40:37;13.20;99.90
13697;DHT22;6920;50.080;8.226;2023-04-24T10:43:09;13.50;99.90
13697;DHT22;6920;50.080;8.226;2023-04-24T10:45:37;13.70;99.90
13697;DHT22;6920;50.080;8.226;2023-04-24T10:48:06;13.40;99.90
13697;DHT22;6920;50.080;8.226;2023-04-24T10:50:46;13.40;99.90
13697;DHT22;6920;50.080;8.226;2023-04-24T10:53:16;13.40;99.90
13697;DHT22;6920;50.080;8.226;2023-04-24T10:55:46;13.20;99.90
13697;DHT22;6920;50.080;8.226;2023-04-24T10:58:14;13.20;99.90
13697;DHT22;6920;50.080;8.226;2023-04-24T11:00:43;13.20;99.90
13697;DHT22;6920;50.080;8.226;2023-04-24T11:03:26;13.20;99.90
13697;DHT22;6920;50.080;8.226;2023-04-24T11:05:56;13.30;99.90
13697;DHT22;6920;50.080;8.226;2023-04-24T11:08:26;13.70;99.90
13697;DHT22;6920;50.080;8.226;2023-04-24T11:10:59;14.30;99.90
13697;DHT22;6920;50.080;8.226;2023-04-24T11:16:26;15.10;99.90
13697;DHT22;6920;50.080;8.226;2023-04-24T11:19:00;15.10;99.90
13697;DHT22;6920;50.080;8.226;2023-04-24T11:21:42;14.70;99.90
13697;DHT22;6920;50.080;8.226;2023-04-24T11:24:38;14.20;99.90
13697;DHT22;6920;50.080;8.226;2023-04-24T11:27:11;13.70;99.90
13697;DHT22;6920;50.080;8.226;2023-04-24T11:29:43;13.80;99.90
13697;DHT22;6920;50.080;8.226;2023-04-24T11:32:22;13.60;99.90
13697;DHT22;6920;50.080;8.226;2023-04-24T11:34:53;13.30;99.90
13697;DHT22;6920;50.080;8.226;2023-04-24T11:37:24;12.90;99.90
13697;DHT22;6920;50.080;8.226;2023-04-24T11:39:54;11.90;99.90
13697;DHT22;6920;50.080;8.226;2023-04-24T11:42:22;11.20;99.90
13697;DHT22;6920;50.080;8.226;2023-04-24T11:44:52;10.90;99.90
13697;DHT22;6920;50.080;8.226;2023-04-24T11:47:29;10.90;99.90
13697;DHT22;6920;50.080;8.226;2023-04-24T11:50:00;11.00;99.90
13697;DHT22;6920;50.080;8.226;2023-04-24T11:52:36;11.00;99.90
13697;DHT22;6920;50.080;8.226;2023-04-24T11:55:05;11.10;99.90
13697;DHT22;6920;50.080;8.226;2023-04-24T11:57:36;10.90;99.90
13697;DHT22;6920;50.080;8.226;2023-04-24T12:00:05;10.90;99.90
13697;DHT22;6920;50.080;8.226;2023-04-24T12:02:34;11.00;99.90
13697;DHT22;6920;50.080;8.226;2023-04-24T12:05:01;11.20;99.90
13697;DHT22;6920;50.080;8.226;2023-04-24T12:07:29;11.40;99.90
13697;DHT22;6920;50.080;8.226;2023-04-24T12:09:58;11.50;99.90
13697;DHT22;6920;50.080;8.226;2023-04-24T12:12:27;11.60;99.90
13697;DHT22;6920;50.080;8.226;2023-04-24T12:14:55;12.20;99.90
13697;DHT22;6920;50.080;8.226;2023-04-24T12:17:28;12.80;99.90
13697;DHT22;6920;50.080;8.226;2023-04-24T12:20:00;13.20;99.90
13697;DHT22;6920;50.080;8.226;2023-04-24T12:22:28;13.60;99.90
13697;DHT22;6920;50.080;8.226;2023-04-24T12:24:58;13.90;99.90
13697;DHT22;6920;50.080;8.226;2023-04-24T12:27:30;13.90;99.90
13697;DHT22;6920;50.080;8.226;2023-04-24T12:30:00;13.60;99.90
13697;DHT22;6920;50.080;8.226;2023-04-24T12:32:27;13.50;99.90
13697;DHT22;6920;50.080;8.226;2023-04-24T12:34:56;13.20;99.90
13697;DHT22;6920;50.080;8.226;2023-04-24T12:37:25;13.30;99.90
13697;DHT22;6920;50.080;8.226;2023-04-24T12:40:09;13.30;99.90
13697;DHT22;6920;50.080;8.226;2023-04-24T12:42:43;13.20;99.90
13697;DHT22;6920;50.080;8.226;2023-04-24T12:45:11;13.80;99.90
13697;DHT22;6920;50.080;8.226;2023-04-24T12:47:40;14.70;99.90
13697;DHT22;6920;50.080;8.226;2023-04-24T12:50:10;14.80;99.90
13697;DHT22;6920;50.080;8.226;2023-04-24T12:52:39;14.60;99.90
13697;DHT22;6920;50.080;8.226;2023-04-24T12:55:08;14.10;99.90
13697;DHT22;6920;50.080;8.226;2023-04-24T12:57:37;13.70;99.90
13697;DHT22;6920;50.080;8.226;2023-04-24T13:00:05;13.40;99.90
13697;DHT22;6920;50.080;8.226;2023-04-24T13:02:33;13.30;99.90
13697;DHT22;6920;50.080;8.226;2023-04-24T13:05:01;13.30;99.90
13697;DHT22;6920;50.080;8.226;2023-04-24T13:07:31;13.40;99.90
13697;DHT22;6920;50.080;8.226;2023-04-24T13:10:03;13.70;99.90
13697;DHT22;6920;50.080;8.226;2023-04-24T13:12:38;13.80;99.90
13697;DHT22;6920;50.080;8.226;2023-04-24T13:15:14;13.80;99.90
13697;DHT22;6920;50.080;8.226;2023-04-24T13:17:51;13.60;99.90
13697;DHT22;6920;50.080;8.226;2023-04-24T13:20:28;13.60;99.90
13697;DHT22;6920;50.080;8.226;2023-04-24T13:23:22;13.70;99.90
13697;DHT22;6920;50.080;8.226;2023-04-24T13:25:52;13.60;99.90
13697;DHT22;6920;50.080;8.226;2023-04-24T13:28:29;13.70;99.90
13697;DHT22;6920;50.080;8.226;2023-04-24T13:30:59;13.70;99.90
13697;DHT22;6920;50.080;8.226;2023-04-24T13:33:39;13.90;99.90
13697;DHT22;6920;50.080;8.226;2023-04-24T13:36:13;14.20;99.90
13697;DHT22;6920;50.080;8.226;2023-04-24T13:38:48;14.40;99.90
13697;DHT22;6920;50.080;8.226;2023-04-24T13:43:55;14.40;99.90
13697;DHT22;6920;50.080;8.226;2023-04-24T13:46:24;14.30;99.90
13697;DHT22;6920;50.080;8.226;2023-04-24T13:51:22;14.20;99.90
13697;DHT22;6920;50.080;8.226;2023-04-24T13:53:59;14.20;99.90
13697;DHT22;6920;50.080;8.226;2023-04-24T13:56:33;14.30;99.90
13697;DHT22;6920;50.080;8.226;2023-04-24T13:59:04;14.10;99.90
13697;DHT22;6920;50.080;8.226;2023-04-24T14:01:34;14.20;99.90
13697;DHT22;6920;50.080;8.226;2023-04-24T14:04:08;13.80;99.90
13697;DHT22;6920;50.080;8.226;2023-04-24T14:06:47;13.60;99.90
13697;DHT22;6920;50.080;8.226;2023-04-24T14:09:17;13.60;99.90
13697;DHT22;6920;50.080;8.226;2023-04-24T14:11:48;13.60;99.90
13697;DHT22;6920;50.080;8.226;2023-04-24T14:14:19;13.80;99.90
13697;DHT22;6920;50.080;8.226;2023-04-24T14:16:47;13.90;99.90
13697;DHT22;6920;50.080;8.226;2023-04-24T14:19:19;14.10;99.90
13697;DHT22;6920;50.080;8.226;2023-04-24T14:21:56;14.00;99.90
13697;DHT22;6920;50.080;8.226;2023-04-24T14:24:26;14.00;99.90
13697;DHT22;6920;50.080;8.226;2023-04-24T14:26:59;13.90;99.90
13697;DHT22;6920;50.080;8.226;2023-04-24T14:29:32;14.50;99.90
13697;DHT22;6920;50.080;8.226;2023-04-24T14:32:02;15.20;99.90
13697;DHT22;6920;50.080;8.226;2023-04-24T14:34:38;15.10;99.90
13697;DHT22;6920;50.080;8.226;2023-04-24T14:37:19;14.70;99.90
13697;DHT22;6920;50.080;8.226;2023-04-24T14:39:50;14.70;99.90
13697;DHT22;6920;50.080;8.226;2023-04-24T14:42:18;14.60;99.90
13697;DHT22;6920;50.080;8.226;2023-04-24T14:44:54;14.50;99.90
13697;DHT22;6920;50.080;8.226;2023-04-24T14:47:37;14.50;99.90
13697;DHT22;6920;50.080;8.226;2023-04-24T14:50:08;14.40;99.90
13697;DHT22;6920;50.080;8.226;2023-04-24T14:52:50;14.30;99.90
13697;DHT22;6920;50.080;8.226;2023-04-24T14:55:18;14.20;99.90
13697;DHT22;6920;50.080;8.226;2023-04-24T14:57:47;14.20;99.90
13697;DHT22;6920;50.080;8.226;2023-04-24T15:00:19;14.00;99.90
13697;DHT22;6920;50.080;8.226;2023-04-24T15:02:53;13.80;99.90
13697;DHT22;6920;50.080;8.226;2023-04-24T15:05:23;13.70;99.90
13697;DHT22;6920;50.080;8.226;2023-04-24T15:07:54;13.60;99.90
13697;DHT22;6920;50.080;8.226;2023-04-24T15:10:21;13.70;99.90
13697;DHT22;6920;50.080;8.226;2023-04-24T15:12:52;13.60;99.90
13697;DHT22;6920;50.080;8.226;2023-04-24T15:15:21;13.50;99.90
13697;DHT22;6920;50.080;8.226;2023-04-24T15:17:52;13.50;99.90
13697;DHT22;6920;50.080;8.226;2023-04-24T15:20:22;13.50;99.90
13697;DHT22;6920;50.080;8.226;2023-04-24T15:22:54;13.50;99.90
13697;DHT22;6920;50.080;8.226;2023-04-24T15:25:33;13.50;99.90
13697;DHT22;6920;50.080;8.226;2023-04-24T15:28:01;13.50;99.90
13697;DHT22;6920;50.080;8.226;2023-04-24T15:30:29;13.90;99.90
13697;DHT22;6920;50.080;8.226;2023-04-24T15:32:57;14.30;99.90
13697;DHT22;6920;50.080;8.226;2023-04-24T15:35:24;14.40;99.90
13697;DHT22;6920;50.080;8.226;2023-04-24T15:37:57;14.40;99.90
13697;DHT22;6920;50.080;8.226;2023-04-24T15:40:25;14.30;99.90
13697;DHT22;6920;50.080;8.226;2023-04-24T15:42:56;14.10;99.90
13697;DHT22;6920;50.080;8.226;2023-04-24T15:45:25;14.00;99.90
13697;DHT22;6920;50.080;8.226;2023-04-24T15:47:57;14.00;99.90
13697;DHT22;6920;50.080;8.226;2023-04-24T15:50:29;14.10;99.90
13697;DHT22;6920;50.080;8.226;2023-04-24T15:53:00;14.10;99.90
13697;DHT22;6920;50.080;8.226;2023-04-24T15:55:27;14.00;99.90
13697;DHT22;6920;50.080;8.226;2023-04-24T15:57:56;13.90;99.90
13697;DHT22;6920;50.080;8.226;2023-04-24T16:00:27;13.90;99.90
13697;DHT22;6920;50.080;8.226;2023-04-24T16:03:00;13.90;99.90
13697;DHT22;6920;50.080;8.226;2023-04-24T16:05:28;14.00;99.90
13697;DHT22;6920;50.080;8.226;2023-04-24T16:08:08;14.00;99.90
13697;DHT22;6920;50.080;8.226;2023-04-24T16:10:39;14.00;99.90
13697;DHT22;6920;50.080;8.226;2023-04-24T16:13:07;14.00;99.90
13697;DHT22;6920;50.080;8.226;2023-04-24T16:15:37;14.00;99.90
13697;DHT22;6920;50.080;8.226;2023-04-24T16:18:07;14.20;99.90
13697;DHT22;6920;50.080;8.226;2023-04-24T16:20:42;14.10;99.90
13697;DHT22;6920;50.080;8.226;2023-04-24T16:23:18;13.80;99.90
13697;DHT22;6920;50.080;8.226;2023-04-24T16:25:46;13.60;99.90
13697;DHT22;6920;50.080;8.226;2023-04-24T16:28:15;13.70;99.90
13697;DHT22;6920;50.080;8.226;2023-04-24T16:30:44;13.80;99.90
13697;DHT22;6920;50.080;8.226;2023-04-24T16:38:16;13.90;99.90
13697;DHT22;6920;50.080;8.226;2023-04-24T16:40:44;14.00;99.90
13697;DHT22;6920;50.080;8.226;2023-04-24T16:43:12;14.00;99.90
13697;DHT22;6920;50.080;8.226;2023-04-24T16:45:41;14.00;99.90
13697;DHT22;6920;50.080;8.226;2023-04-24T16:48:09;13.80;99.90
13697;DHT22;6920;50.080;8.226;2023-04-24T16:50:36;13.70;99.90
13697;DHT22;6920;50.080;8.226;2023-04-24T16:53:04;13.60;99.90
13697;DHT22;6920;50.080;8.226;2023-04-24T16:55:33;13.50;99.90
13697;DHT22;6920;50.080;8.226;2023-04-24T16:58:00;13.50;99.90
13697;DHT22;6920;50.080;8.226;2023-04-24T17:00:29;13.50;99.90